• Join FlightAware (Why Join?)
  • Login
  • US Flag 
04:50AM EST


 

Airport Tracker/Info


-or-


 

Live Flight TrackerFlight Track Log ✈ SWA3685 ✈ 07-May-2013 ✈ KMDW - KBOS

Flight Track Log - Related Links

Times and Time Zones

All times are in EDT time to prevent confusion due to time zone crossing. See the SWA3685 flight status page for this flight to view local times or setup timezone preferences in your user account.

Time Position Orientation Groundspeed Altitude Reporting Facility
EDT Latitude Longitude Course Direction KTS MPH feet Rate Location/Type
02:45PM 41.8000 -87.6833 82° East 199 229 2,600  Level Chicago TRACON
02:46PM 41.8047 -87.5722 87° East 212 244 5,000 1,980 Climbing Chicago Center
02:47PM 41.7981 -87.4703 95° East 268 308 7,700 3,000 Climbing Chicago Center
02:48PM 41.7892 -87.3683 97° East 276 318 11,300 2,820 Climbing Chicago Center
02:49PM 41.7789 -87.2572 97° East 299 344 13,600 2,700 Climbing Chicago Center
02:50PM 41.8634 -87.0155 82° East  Level Estimated
02:50PM 41.7644 -87.0936 97° East 366 421 16,900  Level Chicago Center
02:51PM 41.7756 -86.9531 84° East 390 449 19,600 2,460 Climbing Chicago Center
02:53PM 41.8361 -86.8292 57° Northeast 400 460 22,100 1,800 Climbing Chicago Center
02:54PM 41.9008 -86.7050 55° Northeast 408 470 23,400 1,380 Climbing Chicago Center
02:55PM 41.9739 -86.5547 57° Northeast 419 482 25,000 1,500 Climbing Chicago Center
02:56PM 41.9789 -86.3978 87° East 424 488 26,600 1,680 Climbing Chicago Center
02:57PM 41.9797 -86.2364 90° East 431 496 28,500 1,860 Climbing Chicago Center
02:58PM 41.9781 -86.0733 91° East 437 503 30,500 2,040 Climbing Chicago Center
02:59PM 41.9975 -85.9156 81° East 441 507 32,800 1,980 Climbing Chicago Center
03:00PM 42.0464 -85.7547 68° East 422 486 34,700 1,740 Climbing Chicago Center
03:01PM 42.0928 -85.6108 66° East 421 484 36,500 1,500 Climbing Chicago Center
03:02PM 42.1133 -85.4642 79° East 403 464 37,900 1,140 Climbing Chicago Center
03:02PM 42.1275 -85.3575 80° East 404 465 38,400 600 Climbing Cleveland Center
03:03PM 42.1400 -85.2014 84° East 404 465 38,900 300 Climbing Cleveland Center
03:04PM 42.1525 -85.0456 84° East 414 476 39,000  Climbing Cleveland Center
03:05PM 42.1669 -84.8867 83° East 419 482 39,000  Level Cleveland Center
03:06PM 42.1789 -84.7306 84° East 419 482 39,000  Level Cleveland Center
03:07PM 42.1861 -84.5908 86° East 419 482 39,000  Level Cleveland Center
03:08PM 42.1975 -84.4375 84° East 419 482 39,000  Level Cleveland Center
03:09PM 42.2108 -84.2839 83° East 419 482 39,000  Level Cleveland Center
03:10PM 42.2242 -84.1306 83° East 419 482 39,000  Level Cleveland Center
03:11PM 42.2392 -83.9769 82° East 419 482 39,000  Level Cleveland Center
03:12PM 42.2539 -83.8233 83° East 419 482 39,000  Level Cleveland Center
03:13PM 42.2667 -83.6642 84° East 414 476 39,000  Level Cleveland Center
03:14PM 42.2811 -83.5133 83° East 414 476 39,000  Level Cleveland Center
03:15PM 42.2956 -83.3539 83° East 414 476 39,000  Level Cleveland Center
03:16PM 42.3119 -83.1806 83° East 426 490 39,000  Level Cleveland Center
03:17PM 42.3239 -83.0264 84° East 420 483 39,000  Level Cleveland Center
03:18PM 42.3375 -82.8697 83° East 420 483 39,000  Level Cleveland Center
03:19PM 42.3508 -82.7156 83° East 414 476 39,000  Level Cleveland Center
03:20PM 42.3639 -82.5614 83° East 414 476 39,000  Level Cleveland Center
03:21PM 42.3769 -82.4072 83° East 414 476 39,000  Level Cleveland Center
03:22PM 42.3875 -82.2531 85° East 409 471 39,000  Level Cleveland Center
03:23PM 42.4022 -82.1017 82° East 409 471 39,000  Level Cleveland Center
03:24PM 42.4147 -81.9472 84° East 404 465 39,000  Level Cleveland Center
03:25PM 42.4267 -81.7983 84° East 404 465 39,000  Level Cleveland Center
03:26PM 42.4367 -81.6439 85° East 404 465 39,000  Level Cleveland Center
03:27PM 42.4483 -81.4864 84° East 409 471 39,000  Level Cleveland Center
03:28PM 42.4597 -81.3486 84° East 409 471 39,000  Level Cleveland Center
03:29PM 42.4711 -81.1967 84° East 404 465 39,000  Level Cleveland Center
03:30PM 42.4800 -81.0392 86° East 404 465 39,000  Level Cleveland Center
03:31PM 42.4911 -80.8844 84° East 404 465 39,000  Level Cleveland Center
03:32PM 42.5017 -80.7297 85° East 404 465 39,000  Level Cleveland Center
03:33PM 42.5103 -80.5606 86° East 404 465 39,000  Level Cleveland Center
03:34PM 42.5206 -80.4086 85° East 404 465 39,000  Level Cleveland Center
03:35PM 42.5306 -80.2536 85° East 410 472 39,000  Level Cleveland Center
03:36PM 42.5425 -80.0986 84° East 404 465 39,000  Level Cleveland Center
03:37PM 42.5544 -79.9603 83° East 404 465 39,000  Level Cleveland Center
03:38PM 42.5619 -79.8081 86° East 404 465 39,000  Level Cleveland Center
03:39PM 42.5711 -79.6528 85° East 404 465 39,000  Level Cleveland Center
03:40PM 42.5761 -79.4978 87° East 409 471 39,000  Level Cleveland Center
03:41PM 42.5869 -79.3425 85° East 409 471 39,000  Level Cleveland Center
03:42PM 42.5936 -79.1872 87° East 409 471 39,000  Level Cleveland Center
03:43PM 42.6039 -79.0289 85° East 409 471 39,000  Level Cleveland Center
03:44PM 42.6103 -78.8736 87° East 409 471 39,000  Level Cleveland Center
03:45PM 42.6181 -78.7183 86° East 409 471 39,000  Level Cleveland Center
03:46PM 42.6236 -78.5486 87° East 414 476 39,000  Level Cleveland Center
03:47PM 42.6311 -78.3933 86° East 414 476 39,000  Level Cleveland Center
03:48PM 42.6386 -78.2378 86° East 420 483 39,000  Level Cleveland Center
03:49PM 42.6456 -78.0794 87° East 415 478 39,000  Level Cleveland Center
03:50PM 42.6525 -77.9211 87° East 409 471 39,000  Level Cleveland Center
03:51PM 42.6614 -77.7625 86° East 414 476 39,000 -360 Level Cleveland Center
03:52PM 42.6636 -77.6042 89° East 414 476 38,300 -840 Descending Cleveland Center
03:53PM 42.6717 -77.4428 86° East 414 476 37,400 -360 Descending Cleveland Center
03:56PM 42.6864 -76.9942 87° East 390 449 37,000 -120 Descending Boston Center
03:57PM 42.6906 -76.8361 88° East 409 471 37,000  Level Boston Center
03:58PM 42.6967 -76.6753 87° East 416 479 37,000  Level Boston Center
04:00PM 42.7003 -76.5172 88° East 411 473 37,000  Level Boston Center
04:01PM 42.7058 -76.3594 87° East 411 473 37,000  Level Boston Center
04:02PM 42.7119 -76.1844 87° East 418 481 37,000  Level Boston Center
04:03PM 42.7147 -76.0292 89° East 418 481 37,000  Level Boston Center
04:04PM 42.7197 -75.8656 88° East 418 481 37,000  Level Boston Center
04:05PM 42.7203 -75.7044 90° East 418 481 37,000  Level Boston Center
04:06PM 42.7247 -75.5464 88° East 418 481 37,000  Level Boston Center
04:07PM 42.7269 -75.3825 89° East 418 481 37,000  Level Boston Center
04:08PM 42.7311 -75.2217 88° East 423 487 37,000  Level Boston Center
04:09PM 42.7328 -75.0606 89° East 423 487 37,000  Level Boston Center
04:10PM 42.7344 -74.8936 89° East 423 487 37,000  Level Boston Center
04:11PM 42.7358 -74.7328 89° East 423 487 37,000  Level Boston Center
04:12PM 42.7431 -74.5717 86° East 423 487 37,000  Level Boston Center
04:13PM 42.7417 -74.4106 91° East 423 487 37,000  Level Boston Center
04:14PM 42.7425 -74.2494 90° East 423 487 37,000  Level Boston Center
04:15PM 42.7450 -74.0856 89° East 423 487 37,000  Level Boston Center
04:16PM 42.7450 -73.9244 90° East 423 487 37,000  Level Boston Center
04:17PM 42.7428 -73.7603 91° East 423 487 37,000  Level Boston Center
04:18PM 42.7281 -73.6017 97° East 423 487 37,000  Level Boston Center
04:19PM 42.7108 -73.4403 98° East 423 487 37,000 -480 Level Boston Center
04:20PM 42.6933 -73.2789 98° East 428 493 36,100 -900 Descending Boston Center
04:21PM 42.6756 -73.1150 98° East 428 493 35,100 -1,680 Descending Boston Center
04:22PM 42.6517 -72.8917 98° East 444 511 32,500 -3,000 Descending Boston Center
04:23PM 42.6292 -72.7222 100° East 449 517 29,200 -3,240 Descending Boston Center
04:24PM 42.6150 -72.5756 97° East 449 517 26,100 -3,180 Descending Boston Center
04:25PM 42.5881 -72.3836 101° East 455 524 22,900 -2,820 Descending Boston Center
04:26PM 42.5669 -72.2314 101° East 448 516 20,500 -2,400 Descending Boston Center
04:27PM 42.5500 -72.0850 99° East 405 466 18,200 -2,160 Descending Boston Center
04:28PM 42.5369 -71.9442 97° East 378 435 16,200 -2,100 Descending Boston Center
04:29PM 42.5236 -71.8092 98° East 368 423 14,000 -1,920 Descending Boston Center
04:30PM 42.5106 -71.6825 98° East 356 410 12,100 -1,560 Descending Boston Center
04:31PM 42.5000 -71.5667 97° East 336 387 11,000 -660 Descending KA90
04:32PM 42.4833 -71.4333 100° East 325 374 11,000 -360 Level KA90
04:33PM 42.4833 -71.3333 90° East 307 353 10,400 -1,200 Descending KA90
04:34PM 42.4667 -71.2167 101° East 292 336 8,700 -1,440 Descending KA90
04:35PM 42.4667 -71.1167 90° East 284 327 7,500 -900 Descending KA90
04:36PM 42.4500 -71.0167 103° East 242 278 7,000 -360 Descending KA90
04:37PM 42.3833 -70.9833 160° South 232 267 6,800 -780 Descending KA90
04:38PM 42.3167 -70.9500 160° South 230 265 5,500 -900 Descending KA90
04:39PM 42.2500 -70.9500 180° South 217 250 5,000 -360 Descending KA90
04:40PM 42.2000 -70.9667 194° South 212 244 4,800 -720 Descending KA90
04:41PM 42.1833 -71.0167 246° West 201 231 3,800 -960 Descending KA90
04:42PM 42.2167 -71.0833 304° West 207 238 3,000 -900 Descending KA90
04:43PM 42.2667 -71.0500 26° Northeast 198 228 1,900 -1,020 Descending KA90
04:44PM 42.3167 -71.0333 14° North 177 204 1,000 -960 Descending KA90